Airfield :
LOGIN :

Register | Disclaimer

   EN    FR    IT 

 










Legend :    VFR   Marginal VFR   IFR   Intensive IFR   Very Intensive IFR
Visi :
Ceiling :
>= 8 km
>= 3000ft
5 to 8 km
1000 to 3000 ft
1500m to 5 km
500 to 1000 ft
800 to 1500m
200 to 500 ft
< 800m
< 200 ft
Symbols :   Thunderstorms  Fog  Heavy snow  Heavy precipitations  Wind > 20 kt
SIGMETs :     Misc.  Thunderstorms  Icing  Turbulence  Mountain Waves  Volcanic Ashes







- Airport Elevation : 288 ft
- IATA code : BZZ


EGVN - RAF Brize Norton

CURRENT METAR :
  • 152250Z 22004KT CAVOK 06/04 Q1022 NOSIG

EXPIRED METARs :
  • 152150Z 18003KT CAVOK 07/05 Q1022 NOSIG
  • 152050Z 22001KT CAVOK 05/03 Q1023 NOSIG

TAF TAF EGVN
Valid from the 15 at 21:00 until the 16 at 21:00 UTC


151944Z 1521/1621 20005KT CAVOK
BECMG 1600/1603 5000 BR BKN012
PROB30
TEMPO 1602/1609 2500 -DZ SCT006
BECMG 1609/1612 9999 NSW
TEMPO 1618/1621 5000 BR BKN005
No reported NOTAMs for that airfield.
1 SIGMET reported for the London FIR (EGTT) :
 
Severe mountain waves
EGTT SIGMET 02 VALID 152300/160300 EGRR
EGTT LONDON FIR SEV MTW FCST WI N5328 E00011 - N5228 W00406 - N5500 W00435 - N5500 E00008 - N5328 E00011 FL030/200 STNR WKN=



MET'MAP, your aeronautical weather chart ! - Copyright ORBIFLY December 2007 - Disclaimer

ORBIFLY MET'MAP TEAM :

Programming & Development : Alexandra Zaïnal
Concept & Development : Baudouin d'Aumeries
Co-Development & Prog : Marc-Olivier Méhu
Technical & hardware support : Manuel Goepfert

Contact : metmap@orbifly.com




SOURCES & CREDITS :

   NOAA